createdAt,value
2019-04-14T00:00:29.815Z,0
2019-04-14T00:01:28.864Z,0
2019-04-14T00:02:29.329Z,0
2019-04-14T00:03:29.015Z,0
2019-04-14T00:04:29.105Z,0
2019-04-14T00:05:31.460Z,0
2019-04-14T00:06:30.817Z,0
2019-04-14T00:07:30.289Z,0
2019-04-14T00:08:30.513Z,0
2019-04-14T00:09:29.533Z,0
2019-04-14T00:10:29.447Z,0
2019-04-14T00:11:30.124Z,0
2019-04-14T00:12:29.616Z,0
2019-04-14T00:13:30.623Z,0
2019-04-14T00:14:31.469Z,0
2019-04-14T00:15:36.159Z,0
2019-04-14T00:16:31.279Z,0
2019-04-14T00:17:30.848Z,0
2019-04-14T00:18:29.912Z,0
2019-04-14T00:19:30.612Z,0
2019-04-14T00:20:30.054Z,0
2019-04-14T00:21:30.410Z,0
2019-04-14T00:22:30.949Z,0
2019-04-14T00:23:30.440Z,0
2019-04-14T00:24:31.301Z,0
2019-04-14T00:25:30.525Z,0
2019-04-14T00:26:31.485Z,0
2019-04-14T00:27:32.370Z,0
2019-04-14T00:28:31.568Z,0
2019-04-14T00:29:30.683Z,0
2019-04-14T00:30:31.596Z,0
2019-04-14T00:31:32.842Z,0
2019-04-14T00:32:31.815Z,0
2019-04-14T00:33:30.865Z,0
2019-04-14T00:34:37.996Z,0
2019-04-14T00:35:32.059Z,0
2019-04-14T00:36:32.590Z,0
2019-04-14T00:37:32.223Z,0
2019-04-14T00:38:32.303Z,0
2019-04-14T00:39:31.523Z,0
2019-04-14T00:40:32.894Z,0
2019-04-14T00:41:39.336Z,0
2019-04-14T00:42:32.403Z,0
2019-04-14T00:43:31.466Z,0
2019-04-14T00:44:31.832Z,0
2019-04-14T00:45:41.427Z,0
2019-04-14T00:46:34.108Z,0
2019-04-14T00:47:31.661Z,0
2019-04-14T00:48:32.677Z,0
2019-04-14T00:49:31.744Z,0
2019-04-14T00:50:31.970Z,0
2019-04-14T00:51:33.022Z,0
2019-04-14T00:52:33.949Z,0
2019-04-14T00:53:31.948Z,0
2019-04-14T00:54:32.505Z,0
2019-04-14T00:55:33.530Z,0
2019-04-14T00:56:32.317Z,0
2019-04-14T00:57:33.383Z,0
2019-04-14T00:58:32.414Z,0
2019-04-14T00:59:33.360Z,0
2019-04-14T01:00:34.130Z,0
2019-04-14T01:01:33.729Z,0
2019-04-14T01:02:33.889Z,0
2019-04-14T01:03:33.020Z,0
2019-04-14T01:04:33.740Z,0
2019-04-14T01:05:34.782Z,0
2019-04-14T01:06:34.036Z,0
2019-04-14T01:07:33.096Z,0
2019-04-14T01:08:33.489Z,0
2019-04-14T01:09:33.258Z,0
2019-04-14T01:10:34.364Z,0
2019-04-14T01:11:33.563Z,0
2019-04-14T01:12:34.151Z,0
2019-04-14T01:13:35.381Z,0
2019-04-14T01:14:34.686Z,0
2019-04-14T01:15:44.658Z,0
2019-04-14T01:16:34.822Z,0
2019-04-14T01:17:35.122Z,0
2019-04-14T01:18:34.099Z,0
2019-04-14T01:19:35.107Z,0
2019-04-14T01:20:34.070Z,0
2019-04-14T01:21:34.926Z,0
2019-04-14T01:22:34.232Z,0
2019-04-14T01:23:34.791Z,0
2019-04-14T01:24:34.358Z,0
2019-04-14T01:25:34.676Z,0
2019-04-14T01:26:35.577Z,0
2019-04-14T01:27:36.287Z,0
2019-04-14T01:28:35.695Z,0
2019-04-14T01:29:34.720Z,0
2019-04-14T01:30:35.078Z,0
2019-04-14T01:31:35.943Z,0
2019-04-14T01:32:37.155Z,0
2019-04-14T01:33:35.822Z,0
2019-04-14T01:34:36.982Z,0
2019-04-14T01:35:36.037Z,0
2019-04-14T01:36:35.096Z,0
2019-04-14T01:37:35.453Z,0
2019-04-14T01:38:36.362Z,0
2019-04-14T01:39:37.165Z,0
2019-04-14T01:40:36.335Z,0
2019-04-14T01:41:36.696Z,0
2019-04-14T01:42:35.608Z,0
2019-04-14T01:43:36.403Z,0
2019-04-14T01:44:37.344Z,0
2019-04-14T01:45:36.671Z,0
2019-04-14T01:46:36.181Z,0
2019-04-14T01:47:35.833Z,0
2019-04-14T01:48:36.687Z,0
2019-04-14T01:49:37.602Z,0
2019-04-14T01:50:36.995Z,0
2019-04-14T01:51:36.047Z,0
2019-04-14T01:52:36.325Z,0
2019-04-14T01:53:37.897Z,0
2019-04-14T01:54:37.296Z,0
2019-04-14T01:55:37.321Z,0
2019-04-14T01:56:36.424Z,0
2019-04-14T01:57:37.065Z,0
2019-04-14T01:58:38.165Z,0
2019-04-14T01:59:36.946Z,0
2019-04-14T02:00:37.808Z,0
2019-04-14T02:01:36.831Z,0
2019-04-14T02:02:37.910Z,0
2019-04-14T02:03:36.984Z,0
2019-04-14T02:04:37.707Z,0
2019-04-14T02:05:38.522Z,0
2019-04-14T02:06:38.170Z,0
2019-04-14T02:07:38.298Z,0
2019-04-14T02:08:37.338Z,0
2019-04-14T02:09:37.878Z,0
2019-04-14T02:10:39.195Z,0
2019-04-14T02:11:37.714Z,0
2019-04-14T02:12:38.734Z,0
2019-04-14T02:13:39.635Z,0
2019-04-14T02:14:38.748Z,0
2019-04-14T02:15:37.806Z,0
2019-04-14T02:16:44.337Z,0
2019-04-14T02:17:39.180Z,0
2019-04-14T02:18:38.401Z,0
2019-04-14T02:19:39.160Z,0
2019-04-14T02:20:38.234Z,0
2019-04-14T02:21:38.844Z,0
2019-04-14T02:22:39.753Z,0
2019-04-14T02:23:38.646Z,0
2019-04-14T02:24:39.507Z,0
2019-04-14T02:25:40.420Z,0
2019-04-14T02:26:39.415Z,0
2019-04-14T02:27:40.655Z,0
2019-04-14T02:28:39.722Z,0
2019-04-14T02:29:38.646Z,0
2019-04-14T02:30:46.846Z,0
2019-04-14T02:32:09.360Z,0
2019-04-14T02:33:03.145Z,0
2019-04-14T02:34:07.203Z,0
2019-04-14T02:35:20.404Z,0
2019-04-14T02:36:13.598Z,0
2019-04-14T02:37:10.082Z,0
2019-04-14T02:38:11.723Z,0
2019-04-14T02:39:05.813Z,0
2019-04-14T02:40:07.439Z,0
2019-04-14T02:43:02.479Z,0
2019-04-14T02:44:22.691Z,0
2019-04-14T02:45:07.661Z,0
2019-04-14T02:46:01.470Z,0
2019-04-14T02:47:17.589Z,0
2019-04-14T02:48:14.309Z,0
2019-04-14T02:49:01.957Z,0
2019-04-14T02:50:16.930Z,0
2019-04-14T02:52:03.881Z,0
2019-04-14T02:53:07.221Z,0
2019-04-14T02:54:04.550Z,0
2019-04-14T02:55:02.722Z,0
2019-04-14T02:56:15.420Z,0
2019-04-14T02:57:09.488Z,0
2019-04-14T02:59:03.379Z,0
2019-04-14T03:01:06.692Z,0
2019-04-14T03:03:08.671Z,0
2019-04-14T03:04:03.630Z,0
2019-04-14T03:05:01.554Z,0
2019-04-14T03:06:05.075Z,0
2019-04-14T03:07:04.512Z,0
2019-04-14T03:08:06.224Z,0
2019-04-14T03:09:07.499Z,0
2019-04-14T03:10:00.531Z,0
2019-04-14T03:12:24.283Z,0
2019-04-14T03:13:20.610Z,0
2019-04-14T03:14:06.009Z,0
2019-04-14T03:19:06.047Z,0
2019-04-14T03:20:13.459Z,0
2019-04-14T03:22:12.139Z,0
2019-04-14T03:23:04.731Z,0
2019-04-14T03:24:26.773Z,0
2019-04-14T03:24:54.922Z,0
2019-04-14T03:26:04.536Z,0
2019-04-14T03:27:03.962Z,0
2019-04-14T03:28:25.711Z,0
2019-04-14T03:29:05.136Z,0
2019-04-14T03:30:16.061Z,0
2019-04-14T03:32:22.754Z,0
2019-04-14T03:34:20.777Z,0
2019-04-14T03:35:34.698Z,0
2019-04-14T03:36:42.971Z,0
2019-04-14T03:37:28.754Z,0
2019-04-14T03:38:18.037Z,0
2019-04-14T03:39:05.539Z,0
2019-04-14T03:40:08.129Z,0
2019-04-14T03:42:08.284Z,0
2019-04-14T03:43:09.686Z,0
2019-04-14T03:44:09.422Z,0
2019-04-14T03:45:03.380Z,0
2019-04-14T03:46:16.918Z,0
2019-04-14T03:49:24.409Z,0
2019-04-14T03:50:05.707Z,0
2019-04-14T03:51:08.084Z,0
2019-04-14T03:52:12.750Z,0
2019-04-14T03:54:02.750Z,0
2019-04-14T03:54:56.261Z,0
2019-04-14T03:55:49.002Z,0
2019-04-14T03:56:42.211Z,0
2019-04-14T03:57:41.272Z,0
2019-04-14T03:58:42.095Z,0
2019-04-14T03:59:43.427Z,0
2019-04-14T04:00:42.454Z,0
2019-04-14T04:01:41.511Z,0
2019-04-14T04:02:42.295Z,0
2019-04-14T04:03:41.625Z,0
2019-04-14T04:04:42.704Z,0
2019-04-14T04:05:41.802Z,0
2019-04-14T04:06:42.224Z,0
2019-04-14T04:07:43.140Z,0
2019-04-14T04:08:42.099Z,0
2019-04-14T04:09:43.219Z,0
2019-04-14T04:10:42.235Z,0
2019-04-14T04:11:43.283Z,0
2019-04-14T04:12:44.255Z,0
2019-04-14T04:13:43.256Z,0
2019-04-14T04:14:42.304Z,0
2019-04-14T04:15:43.219Z,0
2019-04-14T04:16:43.956Z,0
2019-04-14T04:17:43.596Z,0
2019-04-14T04:18:50.729Z,0
2019-04-14T04:19:44.696Z,0
2019-04-14T04:20:43.430Z,0
2019-04-14T04:21:44.428Z,0
2019-04-14T04:22:43.416Z,0
2019-04-14T04:23:42.998Z,0
2019-04-14T04:24:43.360Z,0
2019-04-14T04:25:44.324Z,0
2019-04-14T04:26:43.209Z,0
2019-04-14T04:27:44.008Z,0
2019-04-14T04:28:43.351Z,0
2019-04-14T04:29:44.058Z,0
2019-04-14T04:30:43.459Z,0
2019-04-14T04:31:43.916Z,0
2019-04-14T04:32:44.498Z,0
2019-04-14T04:33:43.706Z,0
2019-04-14T04:34:44.533Z,0
2019-04-14T04:35:45.737Z,0
2019-04-14T04:36:44.815Z,0
2019-04-14T04:37:45.445Z,0
2019-04-14T04:38:44.242Z,0
2019-04-14T04:39:45.301Z,0
2019-04-14T04:40:44.075Z,0
2019-04-14T04:41:45.020Z,5.625
2019-04-14T04:42:45.801Z,5.625
2019-04-14T04:43:45.219Z,5.625
2019-04-14T04:44:44.248Z,5.625
2019-04-14T04:45:45.149Z,5.625
2019-04-14T04:46:45.936Z,5.625
2019-04-14T04:47:45.359Z,5.625
2019-04-14T04:48:56.398Z,5.625
2019-04-14T04:49:46.746Z,5.625
2019-04-14T04:50:45.333Z,5.625
2019-04-14T04:51:46.517Z,11.25
2019-04-14T04:52:45.750Z,11.25
2019-04-14T04:53:44.756Z,11.25
2019-04-14T04:54:44.977Z,11.25
2019-04-14T04:55:46.102Z,11.25
2019-04-14T04:56:44.917Z,11.25
2019-04-14T04:57:45.901Z,11.25
2019-04-14T04:58:45.630Z,11.25
2019-04-14T04:59:45.261Z,16.875
2019-04-14T05:00:47.333Z,16.875
2019-04-14T05:01:47.256Z,16.875
2019-04-14T05:02:46.035Z,16.875
2019-04-14T05:03:47.087Z,16.875
2019-04-14T05:04:46.230Z,16.875
2019-04-14T05:05:45.227Z,16.875
2019-04-14T05:06:45.896Z,22.5
2019-04-14T05:07:46.899Z,22.5
2019-04-14T05:08:45.540Z,22.5
2019-04-14T05:09:45.308Z,22.5
2019-04-14T05:10:45.678Z,22.5
2019-04-14T05:11:45.423Z,22.5
2019-04-14T05:12:46.400Z,28.125
2019-04-14T05:13:46.721Z,28.125
2019-04-14T05:14:45.672Z,28.125
2019-04-14T05:15:46.564Z,28.125
2019-04-14T05:16:46.837Z,28.125
2019-04-14T05:17:45.988Z,28.125
2019-04-14T05:18:46.295Z,33.75
2019-04-14T05:19:46.009Z,33.75
2019-04-14T05:20:46.414Z,33.75
2019-04-14T05:21:47.382Z,33.75
2019-04-14T05:22:46.238Z,33.75
2019-04-14T05:23:47.288Z,33.75
2019-04-14T05:24:46.367Z,39.375
2019-04-14T05:25:47.359Z,39.375
2019-04-14T05:26:48.465Z,39.375
2019-04-14T05:27:47.643Z,39.375
2019-04-14T05:28:46.626Z,39.375
2019-04-14T05:29:47.189Z,39.375
2019-04-14T05:30:46.631Z,45
2019-04-14T05:31:46.844Z,45
2019-04-14T05:32:47.641Z,45
2019-04-14T05:33:46.932Z,45
2019-04-14T05:34:47.881Z,45
2019-04-14T05:35:48.830Z,45
2019-04-14T05:36:47.982Z,50.625
2019-04-14T05:37:46.995Z,50.625
2019-04-14T05:38:47.405Z,50.625
2019-04-14T05:39:48.293Z,50.625
2019-04-14T05:40:47.473Z,50.625
2019-04-14T05:41:56.621Z,50.625
2019-04-14T05:42:49.355Z,56.25
2019-04-14T05:43:53.656Z,56.25
2019-04-14T05:44:49.419Z,56.25
2019-04-14T05:45:48.452Z,56.25
2019-04-14T05:46:47.437Z,56.25
2019-04-14T05:47:47.885Z,61.875
2019-04-14T05:48:47.599Z,61.875
2019-04-14T05:49:51.250Z,61.875
2019-04-14T05:50:49.047Z,61.875
2019-04-14T05:51:48.107Z,61.875
2019-04-14T05:52:47.777Z,67.5
2019-04-14T05:53:48.092Z,67.5
2019-04-14T05:54:49.210Z,67.5
2019-04-14T05:55:48.224Z,67.5
2019-04-14T05:56:49.292Z,67.5
2019-04-14T05:57:48.249Z,67.5
2019-04-14T05:58:49.216Z,73.125
2019-04-14T05:59:50.436Z,73.125
2019-04-14T06:00:50.097Z,73.125
2019-04-14T06:01:49.428Z,73.125
2019-04-14T06:02:50.531Z,73.125
2019-04-14T06:03:49.563Z,78.75
2019-04-14T06:04:50.391Z,78.75
2019-04-14T06:05:49.965Z,78.75
2019-04-14T06:06:48.920Z,78.75
2019-04-14T06:07:48.966Z,78.75
2019-04-14T06:08:48.975Z,78.75
2019-04-14T06:09:49.150Z,78.75
2019-04-14T06:10:49.652Z,78.75
2019-04-14T06:11:49.232Z,84.375
2019-04-14T06:12:49.270Z,84.375
2019-04-14T06:13:49.269Z,84.375
2019-04-14T06:14:49.280Z,84.375
2019-04-14T06:15:49.347Z,84.375
2019-04-14T06:16:49.329Z,84.375
2019-04-14T06:17:50.500Z,84.375
2019-04-14T06:18:49.532Z,90
2019-04-14T06:19:49.559Z,90
2019-04-14T06:20:49.603Z,90
2019-04-14T06:21:49.638Z,90
2019-04-14T06:22:49.636Z,90
2019-04-14T06:23:49.647Z,95.625
2019-04-14T06:24:49.669Z,95.625
2019-04-14T06:25:49.754Z,95.625
2019-04-14T06:26:49.790Z,95.625
2019-04-14T06:27:49.798Z,95.625
2019-04-14T06:28:49.806Z,101.25
2019-04-14T06:29:49.812Z,101.25
2019-04-14T06:30:49.815Z,101.25
2019-04-14T06:31:49.895Z,101.25
2019-04-14T06:32:49.922Z,101.25
2019-04-14T06:33:49.918Z,106.875
2019-04-14T06:34:49.931Z,106.875
2019-04-14T06:35:49.935Z,106.875
2019-04-14T06:36:49.978Z,112.5
2019-04-14T06:37:50.019Z,112.5
2019-04-14T06:38:50.049Z,106.875
2019-04-14T06:39:50.073Z,118.125
2019-04-14T06:40:50.093Z,118.125
2019-04-14T06:41:50.121Z,112.5
2019-04-14T06:42:50.153Z,118.125
2019-04-14T06:43:50.132Z,118.125
2019-04-14T06:44:50.303Z,118.125
2019-04-14T06:45:50.306Z,118.125
2019-04-14T06:46:50.338Z,118.125
2019-04-14T06:47:50.336Z,123.75
2019-04-14T06:48:50.340Z,123.75
2019-04-14T06:49:50.347Z,123.75
2019-04-14T06:50:50.348Z,123.75
2019-04-14T06:51:50.358Z,123.75
2019-04-14T06:52:50.360Z,123.75
2019-04-14T06:53:50.380Z,129.375
2019-04-14T06:54:50.384Z,140.625
2019-04-14T06:55:50.425Z,135
2019-04-14T06:56:50.454Z,135
2019-04-14T06:57:50.470Z,135
2019-04-14T06:58:50.477Z,140.625
2019-04-14T06:59:50.495Z,140.625
2019-04-14T07:00:50.502Z,140.625
2019-04-14T07:01:50.562Z,140.625
2019-04-14T07:02:51.564Z,140.625
2019-04-14T07:03:50.565Z,140.625
2019-04-14T07:04:50.601Z,146.25
2019-04-14T07:05:50.606Z,146.25
2019-04-14T07:06:51.446Z,146.25
2019-04-14T07:07:56.684Z,151.875
2019-04-14T07:08:50.799Z,151.875
2019-04-14T07:09:50.875Z,151.875
2019-04-14T07:10:50.873Z,151.875
2019-04-14T07:11:50.916Z,163.125
2019-04-14T07:12:50.953Z,151.875
2019-04-14T07:13:50.943Z,157.5
2019-04-14T07:14:50.967Z,157.5
2019-04-14T07:15:50.972Z,163.125
2019-04-14T07:16:51.464Z,163.125
2019-04-14T07:17:51.074Z,163.125
2019-04-14T07:18:51.065Z,163.125
2019-04-14T07:20:01.210Z,163.125
2019-04-14T07:20:52.201Z,191.25
2019-04-14T07:21:51.535Z,174.375
2019-04-14T07:22:51.246Z,174.375
2019-04-14T07:23:51.275Z,180
2019-04-14T07:24:51.270Z,180
2019-04-14T07:25:51.269Z,185.625
2019-04-14T07:26:51.322Z,191.25
2019-04-14T07:27:51.341Z,185.625
2019-04-14T07:28:56.751Z,191.25
2019-04-14T07:29:51.531Z,180
2019-04-14T07:30:51.520Z,185.625
2019-04-14T07:31:51.541Z,185.625
2019-04-14T07:32:51.576Z,191.25
2019-04-14T07:33:51.623Z,202.5
2019-04-14T07:34:51.649Z,202.5
2019-04-14T07:35:51.680Z,185.625
2019-04-14T07:36:51.721Z,185.625
2019-04-14T07:37:51.817Z,185.625
2019-04-14T07:38:51.845Z,191.25
2019-04-14T07:39:51.858Z,191.25
2019-04-14T07:40:51.995Z,185.625
2019-04-14T07:41:52.011Z,191.25
2019-04-14T07:42:52.038Z,196.875
2019-04-14T07:43:52.101Z,191.25
2019-04-14T07:44:52.121Z,202.5
2019-04-14T07:45:52.157Z,202.5
2019-04-14T07:46:52.153Z,213.75
2019-04-14T07:47:52.181Z,230.625
2019-04-14T07:48:52.184Z,230.625
2019-04-14T07:49:52.219Z,241.875
2019-04-14T07:50:52.226Z,236.25
2019-04-14T07:51:52.286Z,225
2019-04-14T07:52:52.341Z,219.375
2019-04-14T07:53:52.368Z,236.25
2019-04-14T07:54:52.398Z,236.25
2019-04-14T07:55:52.453Z,225
2019-04-14T07:56:52.597Z,236.25
2019-04-14T07:57:52.628Z,230.625
2019-04-14T07:58:52.656Z,247.5
2019-04-14T07:59:52.721Z,230.625
2019-04-14T08:00:52.751Z,241.875
2019-04-14T08:01:52.785Z,225
2019-04-14T08:02:52.795Z,236.25
2019-04-14T08:03:52.859Z,236.25
2019-04-14T08:04:52.868Z,241.875
2019-04-14T08:05:52.878Z,230.625
2019-04-14T08:06:52.943Z,236.25
2019-04-14T08:07:53.005Z,236.25
2019-04-14T08:08:53.032Z,236.25
2019-04-14T08:09:53.073Z,241.875
2019-04-14T08:10:53.091Z,241.875
2019-04-14T08:11:53.123Z,365.625
2019-04-14T08:12:53.140Z,450
2019-04-14T08:13:53.228Z,590.625
2019-04-14T08:14:53.241Z,596.25
2019-04-14T08:15:53.274Z,624.375
2019-04-14T08:16:53.300Z,613.125
2019-04-14T08:17:53.312Z,618.75
2019-04-14T08:18:53.498Z,641.25
2019-04-14T08:19:53.498Z,641.25
2019-04-14T08:20:53.559Z,568.125
2019-04-14T08:21:53.676Z,624.375
2019-04-14T08:22:53.672Z,607.5
2019-04-14T08:23:53.905Z,562.5
2019-04-14T08:24:53.961Z,551.25
2019-04-14T08:25:53.928Z,579.375
2019-04-14T08:26:53.954Z,545.625
2019-04-14T08:27:54.127Z,585
2019-04-14T08:28:54.202Z,618.75
2019-04-14T08:29:54.139Z,601.875
2019-04-14T08:30:54.302Z,500.625
2019-04-14T08:31:54.278Z,416.25
2019-04-14T08:32:54.465Z,461.25
2019-04-14T08:33:54.421Z,495
2019-04-14T08:34:54.570Z,562.5
2019-04-14T08:35:54.776Z,483.75
2019-04-14T08:36:54.758Z,556.875
2019-04-14T08:37:54.764Z,573.75
2019-04-14T08:38:54.796Z,455.625
2019-04-14T08:39:54.871Z,405
2019-04-14T08:40:54.936Z,393.75
2019-04-14T08:41:54.887Z,450
2019-04-14T08:42:55.027Z,646.875
2019-04-14T08:43:55.169Z,793.125
2019-04-14T08:44:55.215Z,860.625
2019-04-14T08:45:55.288Z,883.125
2019-04-14T08:46:55.481Z,922.5
2019-04-14T08:47:55.467Z,922.5
2019-04-14T08:48:55.494Z,759.375
2019-04-14T08:49:55.619Z,765
2019-04-14T08:50:55.622Z,849.375
2019-04-14T08:51:55.615Z,590.625
2019-04-14T08:52:55.630Z,495
2019-04-14T08:53:55.639Z,466.875
2019-04-14T08:54:55.720Z,517.5
2019-04-14T08:55:55.764Z,444.375
2019-04-14T08:56:55.831Z,472.5
2019-04-14T08:57:55.816Z,630
2019-04-14T08:58:56.928Z,624.375
2019-04-14T08:59:56.136Z,641.25
2019-04-14T09:00:56.118Z,675
2019-04-14T09:01:56.139Z,658.125
2019-04-14T09:02:56.161Z,590.625
2019-04-14T09:03:56.146Z,500.625
2019-04-14T09:04:56.182Z,540
2019-04-14T09:05:56.164Z,534.375
2019-04-14T09:06:56.345Z,770.625
2019-04-14T09:07:56.387Z,810
2019-04-14T09:08:56.377Z,590.625
2019-04-14T09:09:56.440Z,540
2019-04-14T09:10:56.446Z,613.125
2019-04-14T09:11:56.485Z,675
2019-04-14T09:12:57.583Z,596.25
2019-04-14T09:13:56.743Z,697.5
2019-04-14T09:14:57.653Z,815.625
2019-04-14T09:15:56.736Z,736.875
2019-04-14T09:16:56.761Z,613.125
2019-04-14T09:17:56.751Z,489.375
2019-04-14T09:19:07.047Z,455.625
2019-04-14T09:19:58.017Z,585
2019-04-14T09:20:57.009Z,748.125
2019-04-14T09:21:56.996Z,787.5
2019-04-14T09:22:56.983Z,376.875
2019-04-14T09:23:57.031Z,545.625
2019-04-14T09:24:57.027Z,922.5
2019-04-14T09:25:57.047Z,810
2019-04-14T09:26:57.093Z,478.125
2019-04-14T09:27:57.245Z,731.25
2019-04-14T09:28:57.364Z,686.25
2019-04-14T09:29:57.350Z,866.25
2019-04-14T09:30:57.409Z,810
2019-04-14T09:31:57.449Z,843.75
2019-04-14T09:32:57.497Z,860.625
2019-04-14T09:33:57.555Z,753.75
2019-04-14T09:34:57.564Z,568.125
2019-04-14T09:35:57.648Z,652.5
2019-04-14T09:36:57.668Z,573.75
2019-04-14T09:37:57.653Z,405
2019-04-14T09:38:57.688Z,433.125
2019-04-14T09:39:57.683Z,354.375
2019-04-14T09:40:57.698Z,455.625
2019-04-14T09:41:57.726Z,433.125
2019-04-14T09:42:57.871Z,495
2019-04-14T09:43:57.851Z,579.375
2019-04-14T09:44:58.001Z,545.625
2019-04-14T09:45:58.198Z,489.375
2019-04-14T09:46:58.223Z,607.5
2019-04-14T09:47:59.204Z,686.25
2019-04-14T09:48:58.361Z,630
2019-04-14T09:49:58.370Z,331.875
2019-04-14T09:51:04.474Z,393.75
2019-04-14T09:51:58.543Z,483.75
2019-04-14T09:52:58.587Z,601.875
2019-04-14T09:53:58.577Z,545.625
2019-04-14T09:54:58.737Z,528.75
2019-04-14T09:55:58.723Z,568.125
2019-04-14T09:56:58.758Z,624.375
2019-04-14T09:57:59.880Z,573.75
2019-04-14T09:58:59.036Z,742.5
2019-04-14T09:59:59.054Z,793.125
2019-04-14T10:00:59.075Z,675
2019-04-14T10:01:59.243Z,500.625
2019-04-14T10:02:59.371Z,489.375
2019-04-14T10:03:59.382Z,601.875
2019-04-14T10:04:59.382Z,607.5
2019-04-14T10:05:59.393Z,489.375
2019-04-14T10:06:59.439Z,438.75
2019-04-14T10:07:59.467Z,455.625
2019-04-14T10:08:59.438Z,450
2019-04-14T10:09:59.444Z,528.75
2019-04-14T10:10:59.451Z,601.875
2019-04-14T10:11:59.454Z,556.875
2019-04-14T10:12:59.456Z,770.625
2019-04-14T10:13:59.495Z,534.375
2019-04-14T10:14:59.541Z,708.75
2019-04-14T10:15:59.565Z,545.625
2019-04-14T10:17:01.275Z,371.25
2019-04-14T10:17:59.862Z,416.25
2019-04-14T10:18:59.857Z,888.75
2019-04-14T10:19:59.972Z,1074.375
2019-04-14T10:21:00.052Z,967.5
2019-04-14T10:22:01.025Z,540
2019-04-14T10:23:00.168Z,416.25
2019-04-14T10:24:00.203Z,461.25
2019-04-14T10:25:00.254Z,770.625
2019-04-14T10:26:00.271Z,978.75
2019-04-14T10:27:00.282Z,697.5
2019-04-14T10:28:00.407Z,990
2019-04-14T10:29:00.359Z,1125
2019-04-14T10:30:00.449Z,978.75
2019-04-14T10:31:00.566Z,641.25
2019-04-14T10:32:00.645Z,607.5
2019-04-14T10:33:00.661Z,500.625
2019-04-14T10:34:00.711Z,714.375
2019-04-14T10:35:01.668Z,736.875
2019-04-14T10:36:00.840Z,736.875
2019-04-14T10:37:00.859Z,1006.875
2019-04-14T10:38:00.881Z,950.625
2019-04-14T10:39:00.965Z,1006.875
2019-04-14T10:40:01.007Z,1012.5
2019-04-14T10:41:01.177Z,1102.5
2019-04-14T10:42:01.126Z,1080
2019-04-14T10:43:01.275Z,1023.75
2019-04-14T10:44:01.389Z,1035
2019-04-14T10:45:01.381Z,635.625
2019-04-14T10:46:01.380Z,663.75
2019-04-14T10:47:01.549Z,731.25
2019-04-14T10:48:01.702Z,961.875
2019-04-14T10:49:01.829Z,1063.125
2019-04-14T10:50:01.907Z,1051.875
2019-04-14T10:51:02.029Z,528.75
2019-04-14T10:52:02.142Z,1012.5
2019-04-14T10:53:02.162Z,483.75
2019-04-14T10:54:02.265Z,871.875
2019-04-14T10:55:03.261Z,838.125
2019-04-14T10:56:02.269Z,928.125
2019-04-14T10:57:02.240Z,815.625
2019-04-14T10:58:02.393Z,433.125
2019-04-14T10:59:02.557Z,393.75
2019-04-14T11:00:02.473Z,388.125
2019-04-14T11:01:02.595Z,1198.125
2019-04-14T11:02:02.582Z,1293.75
2019-04-14T11:03:02.626Z,1051.875
2019-04-14T11:04:02.647Z,810
2019-04-14T11:05:02.621Z,871.875
2019-04-14T11:06:02.693Z,832.5
2019-04-14T11:07:02.728Z,427.5
2019-04-14T11:08:02.799Z,1203.75
2019-04-14T11:09:02.928Z,1186.875
2019-04-14T11:10:03.086Z,1293.75
2019-04-14T11:11:03.063Z,1276.875
2019-04-14T11:12:03.084Z,483.75
2019-04-14T11:13:04.104Z,1321.875
2019-04-14T11:14:03.200Z,1265.625
2019-04-14T11:15:03.260Z,556.875
2019-04-14T11:16:03.252Z,416.25
2019-04-14T11:17:03.372Z,371.25
2019-04-14T11:18:03.408Z,781.875
2019-04-14T11:19:03.565Z,421.875
2019-04-14T11:20:03.656Z,343.125
2019-04-14T11:21:03.687Z,326.25
2019-04-14T11:22:03.734Z,1175.625
2019-04-14T11:23:03.897Z,590.625
2019-04-14T11:24:03.865Z,1541.25
2019-04-14T11:25:04.007Z,1501.875
2019-04-14T11:26:04.152Z,1445.625
2019-04-14T11:27:04.217Z,405
2019-04-14T11:28:04.352Z,371.25
2019-04-14T11:29:04.528Z,309.375
2019-04-14T11:30:04.552Z,292.5
2019-04-14T11:31:04.586Z,365.625
2019-04-14T11:32:04.642Z,759.375
2019-04-14T11:33:04.795Z,461.25
2019-04-14T11:34:04.959Z,1586.25
2019-04-14T11:35:05.067Z,1552.5
2019-04-14T11:36:05.212Z,1597.5
2019-04-14T11:37:05.188Z,1575
2019-04-14T11:38:05.370Z,1603.125
2019-04-14T11:39:05.416Z,585
2019-04-14T11:40:05.547Z,1012.5
2019-04-14T11:41:05.616Z,523.125
2019-04-14T11:42:05.775Z,540
2019-04-14T11:43:05.843Z,883.125
2019-04-14T11:44:05.869Z,1524.375
2019-04-14T11:45:05.947Z,427.5
2019-04-14T11:46:05.985Z,360
2019-04-14T11:47:06.062Z,343.125
2019-04-14T11:48:06.105Z,388.125
2019-04-14T11:49:06.144Z,450
2019-04-14T11:50:06.218Z,427.5
2019-04-14T11:51:06.213Z,416.25
2019-04-14T11:52:06.304Z,1558.125
2019-04-14T11:53:06.305Z,1001.25
2019-04-14T11:54:06.330Z,388.125
2019-04-14T11:55:06.371Z,1507.5
2019-04-14T11:56:06.511Z,1524.375
2019-04-14T11:57:06.487Z,1541.25
2019-04-14T11:58:06.626Z,1558.125
2019-04-14T11:59:06.747Z,1653.75
2019-04-14T12:00:07.896Z,1670.625
2019-04-14T12:01:06.986Z,939.375
2019-04-14T12:02:07.066Z,1175.625
2019-04-14T12:03:07.093Z,562.5
2019-04-14T12:04:07.087Z,1541.25
2019-04-14T12:05:07.146Z,444.375
2019-04-14T12:06:07.177Z,399.375
2019-04-14T12:07:07.277Z,376.875
2019-04-14T12:08:07.258Z,393.75
2019-04-14T12:09:07.390Z,461.25
2019-04-14T12:10:07.542Z,523.125
2019-04-14T12:11:07.688Z,663.75
2019-04-14T12:12:07.758Z,922.5
2019-04-14T12:13:07.792Z,500.625
2019-04-14T12:14:07.788Z,517.5
2019-04-14T12:15:07.830Z,545.625
2019-04-14T12:16:08.974Z,720
2019-04-14T12:17:08.012Z,438.75
2019-04-14T12:18:07.953Z,433.125
2019-04-14T12:19:07.975Z,686.25
2019-04-14T12:20:09.059Z,1603.125
2019-04-14T12:21:08.188Z,1676.25
2019-04-14T12:22:08.861Z,1693.125
2019-04-14T12:23:08.297Z,1710
2019-04-14T12:24:09.427Z,1687.5
2019-04-14T12:25:08.520Z,1681.875
2019-04-14T12:26:08.644Z,1681.875
2019-04-14T12:27:08.788Z,1670.625
2019-04-14T12:28:09.224Z,1653.75
2019-04-14T12:29:09.696Z,669.375
2019-04-14T12:30:09.000Z,450
2019-04-14T12:31:08.989Z,337.5
2019-04-14T12:32:09.105Z,264.375
2019-04-14T12:33:09.146Z,275.625
2019-04-14T12:34:09.143Z,331.875
2019-04-14T12:35:10.190Z,1468.125
2019-04-14T12:36:09.261Z,1462.5
2019-04-14T12:37:09.411Z,1591.875
2019-04-14T12:38:09.525Z,1687.5
2019-04-14T12:39:10.606Z,646.875
2019-04-14T12:40:10.506Z,1681.875
2019-04-14T12:41:10.500Z,810
2019-04-14T12:42:09.792Z,393.75
2019-04-14T12:43:09.801Z,444.375
2019-04-14T12:44:09.821Z,585
2019-04-14T12:45:09.851Z,478.125
2019-04-14T12:46:09.981Z,416.25
2019-04-14T12:47:10.279Z,365.625
2019-04-14T12:48:10.218Z,360
2019-04-14T12:49:10.229Z,326.25
2019-04-14T12:50:10.354Z,315
2019-04-14T12:51:10.465Z,320.625
2019-04-14T12:52:20.423Z,337.5
2019-04-14T12:53:11.600Z,506.25
2019-04-14T12:54:10.621Z,483.75
2019-04-14T12:55:10.617Z,1518.75
2019-04-14T12:56:10.731Z,1620
2019-04-14T12:57:10.861Z,1620
2019-04-14T12:58:11.280Z,1580.625
2019-04-14T12:59:11.012Z,1513.125
2019-04-14T13:00:11.090Z,1468.125
2019-04-14T13:01:11.262Z,1479.375
2019-04-14T13:02:11.473Z,1597.5
2019-04-14T13:03:11.359Z,1653.75
2019-04-14T13:04:11.493Z,1569.375
2019-04-14T13:05:11.596Z,1535.625
2019-04-14T13:06:11.585Z,421.875
2019-04-14T13:07:11.743Z,348.75
2019-04-14T13:08:11.751Z,365.625
2019-04-14T13:09:14.436Z,489.375
2019-04-14T13:10:11.793Z,1575
2019-04-14T13:11:11.915Z,1440
2019-04-14T13:12:11.970Z,1451.25
2019-04-14T13:13:12.108Z,1316.25
2019-04-14T13:14:12.117Z,399.375
2019-04-14T13:15:12.127Z,461.25
2019-04-14T13:16:12.134Z,331.875
2019-04-14T13:17:12.289Z,309.375
2019-04-14T13:18:12.501Z,315
2019-04-14T13:19:12.541Z,393.75
2019-04-14T13:20:12.610Z,1569.375
2019-04-14T13:21:12.732Z,1676.25
2019-04-14T13:22:12.849Z,1670.625
2019-04-14T13:23:13.026Z,1687.5
2019-04-14T13:24:12.971Z,1586.25
2019-04-14T13:25:13.100Z,1732.5
2019-04-14T13:26:13.269Z,1597.5
2019-04-14T13:27:13.379Z,1102.5
2019-04-14T13:28:13.583Z,1051.875
2019-04-14T13:29:13.539Z,1620